createdAt,value
2018-05-26T00:00:35.142Z,36.27
2018-05-26T00:03:09.356Z,34.70
2018-05-26T00:05:42.394Z,35.77
2018-05-26T00:08:24.458Z,34.90
2018-05-26T00:10:52.012Z,35.20
2018-05-26T00:13:20.698Z,35.07
2018-05-26T00:15:48.289Z,34.83
2018-05-26T00:18:17.760Z,35.97
2018-05-26T00:20:46.430Z,35.77
2018-05-26T00:23:20.669Z,35.27
2018-05-26T00:26:06.214Z,35.50
2018-05-26T00:28:34.938Z,35.57
2018-05-26T00:31:07.964Z,38.63
2018-05-26T00:33:38.756Z,35.73
2018-05-26T00:36:17.273Z,36.43
2018-05-26T00:39:02.790Z,37.07
2018-05-26T00:41:30.334Z,37.10
2018-05-26T00:43:59.011Z,37.47
2018-05-26T00:46:31.428Z,38.37
2018-05-26T00:49:15.680Z,37.53
2018-05-26T00:51:54.547Z,37.80
2018-05-26T00:54:33.048Z,37.53
2018-05-26T00:57:07.890Z,36.43
2018-05-26T00:59:36.609Z,35.20
2018-05-26T01:02:08.722Z,36.73
2018-05-26T01:04:36.430Z,35.03
2018-05-26T01:07:06.972Z,36.90
2018-05-26T01:09:35.660Z,34.37
2018-05-26T01:12:04.026Z,33.70
2018-05-26T01:14:41.898Z,32.97
2018-05-26T01:17:13.994Z,33.13
2018-05-26T01:19:44.841Z,33.37
2018-05-26T01:22:13.616Z,32.90
2018-05-26T01:24:42.208Z,31.57
2018-05-26T01:27:14.294Z,32.80
2018-05-26T01:29:56.157Z,34.27
2018-05-26T01:32:25.786Z,33.07
2018-05-26T01:34:55.078Z,31.73
2018-05-26T01:37:27.523Z,33.70
2018-05-26T01:39:56.184Z,34.63
2018-05-26T01:42:38.905Z,34.40
2018-05-26T01:45:28.006Z,33.73
2018-05-26T01:47:56.616Z,33.87
2018-05-26T01:50:24.129Z,33.97
2018-05-26T01:52:52.745Z,33.77
2018-05-26T01:55:20.272Z,32.13
2018-05-26T01:57:47.979Z,33.70
2018-05-26T02:00:40.358Z,33.70
2018-05-26T02:03:09.015Z,33.00
2018-05-26T02:05:36.559Z,33.87
2018-05-26T02:08:06.040Z,33.53
2018-05-26T02:10:34.791Z,33.90
2018-05-26T02:13:03.135Z,32.03
2018-05-26T02:15:36.145Z,31.93
2018-05-26T02:18:07.265Z,30.93
2018-05-26T02:20:34.764Z,32.10
2018-05-26T02:23:10.466Z,30.57
2018-05-26T02:25:40.081Z,33.13
2018-05-26T02:28:12.457Z,34.80
2018-05-26T02:30:46.634Z,34.03
2018-05-26T02:33:15.073Z,35.07
2018-05-26T02:35:42.618Z,34.33
2018-05-26T02:38:21.014Z,35.27
2018-05-26T02:40:56.776Z,35.77
2018-05-26T02:43:25.499Z,33.27
2018-05-26T02:45:55.080Z,34.87
2018-05-26T02:48:22.588Z,32.80
2018-05-26T02:51:08.692Z,34.03
2018-05-26T02:53:46.637Z,32.80
2018-05-26T02:56:16.270Z,34.10
2018-05-26T02:58:56.004Z,33.13
2018-05-26T03:01:38.450Z,33.23
2018-05-26T03:04:05.495Z,35.87
2018-05-26T03:06:40.682Z,35.93
2018-05-26T03:09:14.952Z,35.30
2018-05-26T03:11:49.111Z,34.30
2018-05-26T03:14:25.538Z,32.07
2018-05-26T03:16:56.160Z,33.10
2018-05-26T03:19:27.316Z,34.37
2018-05-26T03:21:55.092Z,33.47
2018-05-26T03:24:29.177Z,33.27
2018-05-26T03:26:59.502Z,32.77
2018-05-26T03:29:31.538Z,35.30
2018-05-26T03:32:04.547Z,36.93
2018-05-26T03:34:32.069Z,36.80
2018-05-26T03:37:01.610Z,36.70
2018-05-26T03:39:30.349Z,36.53
2018-05-26T03:42:11.511Z,36.53
2018-05-26T03:44:39.039Z,37.60
2018-05-26T03:47:08.643Z,37.70
2018-05-26T03:49:39.189Z,37.10
2018-05-26T03:52:07.641Z,37.27
2018-05-26T03:54:48.926Z,38.50
2018-05-26T03:57:29.297Z,38.60
2018-05-26T04:00:17.851Z,39.30
2018-05-26T04:02:46.568Z,39.00
2018-05-26T04:05:15.224Z,38.00
2018-05-26T04:07:43.917Z,38.90
2018-05-26T04:10:12.622Z,37.93
2018-05-26T04:12:41.299Z,37.77
2018-05-26T04:15:16.415Z,37.07
2018-05-26T04:17:48.523Z,36.50
2018-05-26T04:20:21.175Z,36.73
2018-05-26T04:22:49.895Z,37.30
2018-05-26T04:25:18.576Z,36.63
2018-05-26T04:27:46.075Z,37.87
2018-05-26T04:30:15.746Z,36.50
2018-05-26T04:32:49.239Z,36.70
2018-05-26T04:35:31.720Z,36.10
2018-05-26T04:38:07.787Z,36.07
2018-05-26T04:40:35.316Z,37.40
2018-05-26T04:43:07.631Z,36.07
2018-05-26T04:45:38.804Z,37.37
2018-05-26T04:51:01.050Z,37.53
2018-05-26T04:53:34.942Z,37.70
2018-05-26T04:56:13.447Z,38.83
2018-05-26T04:58:44.595Z,37.83
2018-05-26T05:01:23.093Z,37.63
2018-05-26T05:04:08.599Z,37.67
2018-05-26T05:06:38.323Z,36.73
2018-05-26T05:09:21.068Z,37.63
2018-05-26T05:12:06.674Z,37.37
2018-05-26T05:14:41.543Z,36.10
2018-05-26T05:17:09.082Z,35.20
2018-05-26T05:19:36.863Z,36.43
2018-05-26T05:22:04.529Z,34.67
2018-05-26T05:24:32.027Z,35.53
2018-05-26T05:27:02.879Z,35.60
2018-05-26T05:29:31.531Z,34.30
2018-05-26T05:32:07.901Z,34.50
2018-05-26T05:34:46.367Z,34.87
2018-05-26T05:37:17.581Z,33.50
2018-05-26T05:39:48.391Z,33.37
2018-05-26T05:42:23.898Z,33.97
2018-05-26T05:44:52.531Z,32.37
2018-05-26T05:47:20.047Z,32.83
2018-05-26T05:50:05.809Z,31.40
2018-05-26T05:52:41.920Z,30.73
2018-05-26T05:55:14.017Z,31.33
2018-05-26T05:57:53.740Z,31.70
2018-05-26T06:00:27.640Z,30.13
2018-05-26T06:02:57.286Z,30.30
2018-05-26T06:05:42.471Z,30.00
2018-05-26T06:08:12.168Z,30.00
2018-05-26T06:10:43.598Z,30.77
2018-05-26T06:13:13.222Z,29.50
2018-05-26T06:15:41.900Z,29.87
2018-05-26T06:18:24.360Z,30.67
2018-05-26T06:20:52.804Z,29.23
2018-05-26T06:23:33.196Z,30.37
2018-05-26T06:26:11.634Z,29.43
2018-05-26T06:28:42.842Z,29.10
2018-05-26T06:31:14.596Z,28.50
2018-05-26T06:33:42.335Z,30.03
2018-05-26T06:36:11.965Z,28.77
2018-05-26T06:38:40.323Z,27.10
2018-05-26T06:41:09.949Z,27.83
2018-05-26T06:43:38.331Z,28.63
2018-05-26T06:46:05.857Z,27.03
2018-05-26T06:48:33.562Z,28.43
2018-05-26T06:51:01.921Z,26.87
2018-05-26T06:53:40.130Z,26.90
2018-05-26T06:56:14.065Z,26.40
2018-05-26T06:58:51.638Z,25.80
2018-05-26T07:01:23.720Z,26.63
2018-05-26T07:03:59.141Z,25.93
2018-05-26T07:06:31.212Z,26.53
2018-05-26T07:09:04.222Z,25.60
2018-05-26T07:11:31.741Z,24.83
2018-05-26T07:14:01.273Z,24.17
2018-05-26T07:16:32.738Z,23.53
2018-05-26T07:19:01.403Z,24.97
2018-05-26T07:21:28.916Z,24.10
2018-05-26T07:23:56.651Z,24.60
2018-05-26T07:26:28.391Z,24.87
2018-05-26T07:28:58.037Z,22.33
2018-05-26T07:31:26.683Z,24.03
2018-05-26T07:34:05.212Z,22.83
2018-05-26T07:36:34.501Z,23.83
2018-05-26T07:39:02.008Z,21.77
2018-05-26T07:41:35.575Z,22.03
2018-05-26T07:44:04.244Z,22.33
2018-05-26T07:46:40.605Z,22.70
2018-05-26T07:49:15.197Z,21.70
2018-05-26T07:51:43.859Z,22.10
2018-05-26T07:54:29.367Z,21.57
2018-05-26T07:56:59.123Z,20.33
2018-05-26T07:59:31.079Z,20.80
2018-05-26T08:02:02.877Z,20.90
2018-05-26T08:04:32.523Z,20.53
2018-05-26T08:07:01.144Z,19.87
2018-05-26T08:09:41.187Z,19.23
2018-05-26T08:12:19.995Z,20.37
2018-05-26T08:14:58.849Z,20.67
2018-05-26T08:17:30.932Z,19.93
2018-05-26T08:20:15.232Z,22.23
2018-05-26T08:22:54.079Z,19.97
2018-05-26T08:25:22.799Z,19.23
2018-05-26T08:27:50.322Z,17.73
2018-05-26T08:30:25.065Z,17.43
2018-05-26T08:33:00.536Z,17.90
2018-05-26T08:35:32.929Z,17.27
2018-05-26T08:38:04.676Z,16.03
2018-05-26T08:40:36.169Z,17.23
2018-05-26T08:46:14.894Z,16.60
2018-05-26T08:48:53.767Z,15.20
2018-05-26T08:51:36.318Z,15.57
2018-05-26T08:54:04.670Z,15.47
2018-05-26T08:56:40.712Z,13.90
2018-05-26T08:59:12.509Z,13.43
2018-05-26T09:01:40.896Z,12.53
2018-05-26T09:04:11.157Z,12.83
2018-05-26T09:06:40.725Z,11.83
2018-05-26T09:09:11.558Z,11.97
2018-05-26T09:11:39.098Z,10.13
2018-05-26T09:14:06.771Z,11.97
2018-05-26T09:16:46.226Z,10.43
2018-05-26T09:19:31.724Z,10.40
2018-05-26T09:22:01.422Z,8.70
2018-05-26T09:24:30.078Z,10.80
2018-05-26T09:26:57.586Z,9.50
2018-05-26T09:29:25.329Z,10.03
2018-05-26T09:31:54.056Z,8.90
2018-05-26T09:34:21.757Z,11.00
2018-05-26T09:36:51.386Z,8.57
2018-05-26T09:39:20.052Z,7.93
2018-05-26T09:42:00.105Z,9.10
2018-05-26T09:44:45.628Z,9.00
2018-05-26T09:47:15.298Z,8.47
2018-05-26T09:49:47.359Z,9.33
2018-05-26T09:52:19.159Z,9.10
2018-05-26T09:55:03.137Z,7.90
2018-05-26T09:57:36.188Z,9.50
2018-05-26T10:00:28.862Z,9.47
2018-05-26T10:02:58.449Z,7.90
2018-05-26T10:05:38.129Z,8.63
2018-05-26T10:08:05.654Z,9.80
2018-05-26T10:10:34.317Z,8.40
2018-05-26T10:13:05.791Z,9.67
2018-05-26T10:15:38.446Z,8.87
2018-05-26T10:21:15.082Z,8.60
2018-05-26T10:23:42.625Z,7.90
2018-05-26T10:26:14.740Z,8.53
2018-05-26T10:28:44.317Z,8.50
2018-05-26T10:31:21.867Z,8.47
2018-05-26T10:33:50.594Z,9.70
2018-05-26T10:36:29.370Z,8.73
2018-05-26T10:39:15.844Z,8.27
2018-05-26T10:42:02.756Z,8.67
2018-05-26T10:44:34.799Z,9.00
2018-05-26T10:47:06.541Z,8.37
2018-05-26T10:49:41.432Z,10.40
2018-05-26T10:52:19.241Z,9.37
2018-05-26T10:54:56.837Z,8.47
2018-05-26T10:57:25.560Z,8.90
2018-05-26T10:59:56.101Z,9.30
2018-05-26T11:02:33.103Z,8.27
2018-05-26T11:05:07.540Z,7.63
2018-05-26T11:10:28.016Z,7.67
2018-05-26T11:13:01.291Z,7.80
2018-05-26T11:15:28.794Z,8.27
2018-05-26T11:17:57.617Z,8.37
2018-05-26T11:20:24.987Z,7.27
2018-05-26T11:22:52.686Z,6.73
2018-05-26T11:25:21.401Z,6.97
2018-05-26T11:27:49.145Z,8.27
2018-05-26T11:30:22.746Z,8.50
2018-05-26T11:32:59.085Z,8.00
2018-05-26T11:35:27.800Z,8.13
2018-05-26T11:37:58.009Z,8.83
2018-05-26T11:40:38.052Z,8.33
2018-05-26T11:43:05.889Z,8.00
2018-05-26T11:45:33.704Z,8.10
2018-05-26T11:48:03.211Z,8.03
2018-05-26T11:50:34.047Z,8.40
2018-05-26T11:53:02.738Z,8.47
2018-05-26T11:55:41.231Z,9.33
2018-05-26T11:58:10.871Z,8.60
2018-05-26T12:00:51.186Z,8.53
2018-05-26T12:03:20.878Z,8.07
2018-05-26T12:05:53.820Z,8.77
2018-05-26T12:08:36.867Z,8.90
2018-05-26T12:11:05.362Z,9.07
2018-05-26T12:13:33.077Z,7.70
2018-05-26T12:16:22.397Z,7.53
2018-05-26T12:18:51.963Z,7.63
2018-05-26T12:21:24.854Z,7.67
2018-05-26T12:23:54.261Z,7.77
2018-05-26T12:26:40.384Z,8.90
2018-05-26T12:29:13.731Z,7.20
2018-05-26T12:31:41.253Z,7.20
2018-05-26T12:34:08.947Z,7.27
2018-05-26T12:36:37.647Z,7.63
2018-05-26T12:39:06.088Z,7.57
2018-05-26T12:41:50.659Z,8.47
2018-05-26T12:44:23.689Z,7.83
2018-05-26T12:46:53.286Z,7.50
2018-05-26T12:49:39.738Z,7.67
2018-05-26T12:52:08.203Z,6.50
2018-05-26T12:54:42.671Z,6.87
2018-05-26T12:57:17.245Z,6.70
2018-05-26T12:59:44.772Z,6.30
2018-05-26T13:02:20.753Z,6.60
2018-05-26T13:04:59.247Z,6.73
2018-05-26T13:07:34.655Z,6.30
2018-05-26T13:10:07.715Z,7.00
2018-05-26T13:12:51.674Z,7.10
2018-05-26T13:15:24.128Z,7.37
2018-05-26T13:18:02.305Z,7.13
2018-05-26T13:20:40.812Z,6.73
2018-05-26T13:23:09.564Z,6.93
2018-05-26T13:25:37.369Z,6.33
2018-05-26T13:28:06.931Z,6.10
2018-05-26T13:30:47.251Z,6.10
2018-05-26T13:33:14.789Z,5.67
2018-05-26T13:35:43.501Z,5.97
2018-05-26T13:38:11.181Z,6.33
2018-05-26T13:40:40.813Z,6.67
2018-05-26T13:43:09.163Z,7.90
2018-05-26T13:45:47.364Z,6.13
2018-05-26T13:48:14.875Z,6.23
2018-05-26T13:50:44.489Z,5.90
2018-05-26T13:53:18.972Z,5.63
2018-05-26T13:55:51.092Z,6.30
2018-05-26T13:58:19.741Z,5.33
2018-05-26T14:00:51.497Z,5.50
2018-05-26T14:03:20.225Z,6.07
2018-05-26T14:05:49.789Z,6.47
2018-05-26T14:08:27.364Z,6.30
2018-05-26T14:10:56.989Z,6.60
2018-05-26T14:13:29.063Z,7.70
2018-05-26T14:15:58.656Z,6.57
2018-05-26T14:18:28.283Z,6.80
2018-05-26T14:21:02.168Z,6.43
2018-05-26T14:23:37.635Z,6.67
2018-05-26T14:26:16.131Z,6.57
2018-05-26T14:28:47.289Z,6.17
2018-05-26T14:31:33.455Z,6.00
2018-05-26T14:34:20.244Z,6.73
2018-05-26T14:36:53.316Z,6.00
2018-05-26T14:39:20.819Z,6.20
2018-05-26T14:41:48.957Z,6.77
2018-05-26T14:44:19.707Z,6.10
2018-05-26T14:46:47.424Z,6.33
2018-05-26T14:49:14.929Z,6.60
2018-05-26T14:52:03.269Z,6.50
2018-05-26T14:54:34.053Z,6.40
2018-05-26T14:57:01.565Z,5.93
2018-05-26T14:59:29.284Z,5.97
2018-05-26T15:01:58.856Z,6.27
2018-05-26T15:04:32.203Z,6.00
2018-05-26T15:07:14.346Z,5.90
2018-05-26T15:09:43.999Z,6.40
2018-05-26T15:12:20.100Z,6.33
2018-05-26T15:15:05.569Z,6.00
2018-05-26T15:17:46.600Z,6.30
2018-05-26T15:20:21.112Z,6.37
2018-05-26T15:22:51.994Z,5.80
2018-05-26T15:25:19.486Z,6.03
2018-05-26T15:27:49.062Z,6.07
2018-05-26T15:30:22.366Z,6.47
2018-05-26T15:32:50.735Z,6.17
2018-05-26T15:35:18.286Z,6.50
2018-05-26T15:37:49.326Z,6.77
2018-05-26T15:40:28.801Z,6.13
2018-05-26T15:43:06.352Z,6.37
2018-05-26T15:45:35.063Z,6.20
2018-05-26T15:48:02.583Z,6.30
2018-05-26T15:50:31.157Z,6.20
2018-05-26T15:52:59.132Z,6.10
2018-05-26T15:55:26.756Z,6.50
2018-05-26T15:57:54.495Z,6.47
2018-05-26T16:00:26.574Z,7.00
2018-05-26T16:03:08.705Z,6.63
2018-05-26T16:05:36.317Z,6.20
2018-05-26T16:08:12.240Z,5.80
2018-05-26T16:10:40.681Z,5.90
2018-05-26T16:13:13.957Z,6.03
2018-05-26T16:15:42.655Z,5.77
2018-05-26T16:18:21.445Z,5.50
2018-05-26T16:20:53.248Z,6.23
2018-05-26T16:23:33.870Z,5.63
2018-05-26T16:26:07.798Z,6.40
2018-05-26T16:28:49.134Z,5.90
2018-05-26T16:31:17.806Z,5.80
2018-05-26T16:33:46.462Z,6.23
2018-05-26T16:36:32.018Z,6.90
2018-05-26T16:39:01.662Z,6.30
2018-05-26T16:41:39.862Z,6.37
2018-05-26T16:44:18.474Z,6.17
2018-05-26T16:49:40.949Z,5.90
2018-05-26T16:52:21.854Z,5.43
2018-05-26T16:55:09.348Z,5.80
2018-05-26T16:57:56.092Z,6.00
2018-05-26T17:00:27.588Z,6.00
2018-05-26T17:02:58.775Z,5.27
2018-05-26T17:05:38.229Z,5.20
2018-05-26T17:08:10.593Z,5.73
2018-05-26T17:10:41.130Z,5.70
2018-05-26T17:13:08.640Z,5.70
2018-05-26T17:15:40.619Z,5.90
2018-05-26T17:18:15.439Z,5.67
2018-05-26T17:20:48.159Z,5.63
2018-05-26T17:23:15.699Z,5.70
2018-05-26T17:25:43.379Z,5.60
2018-05-26T17:28:21.248Z,5.63
2018-05-26T17:30:52.461Z,5.90
2018-05-26T17:33:28.787Z,5.23
2018-05-26T17:36:00.951Z,5.90
2018-05-26T17:38:41.302Z,5.83
2018-05-26T17:41:23.359Z,5.17
2018-05-26T17:43:58.250Z,5.60
2018-05-26T17:46:37.049Z,5.60
2018-05-26T17:49:07.928Z,5.50
2018-05-26T17:51:40.720Z,5.70
2018-05-26T17:54:10.213Z,5.97
2018-05-26T17:56:39.920Z,6.53
2018-05-26T17:59:13.087Z,6.30
2018-05-26T18:01:48.870Z,6.57
2018-05-26T18:04:20.952Z,9.00
2018-05-26T18:06:52.743Z,7.83
2018-05-26T18:09:26.788Z,9.70
2018-05-26T18:11:54.391Z,6.80
2018-05-26T18:14:22.753Z,6.93
2018-05-26T18:16:54.312Z,5.60
2018-05-26T18:19:23.805Z,6.60
2018-05-26T18:22:08.877Z,6.47
2018-05-26T18:24:39.937Z,6.10
2018-05-26T18:27:07.490Z,6.73
2018-05-26T18:29:48.310Z,6.23
2018-05-26T18:32:28.107Z,6.40
2018-05-26T18:35:02.962Z,6.60
2018-05-26T18:37:34.693Z,6.37
2018-05-26T18:40:05.579Z,6.53
2018-05-26T18:45:30.551Z,7.03
2018-05-26T18:47:58.078Z,6.80
2018-05-26T18:50:27.689Z,6.90
2018-05-26T18:52:58.169Z,7.83
2018-05-26T18:55:25.667Z,7.23
2018-05-26T18:57:54.299Z,6.70
2018-05-26T19:00:40.142Z,7.03
2018-05-26T19:03:09.796Z,7.10
2018-05-26T19:05:44.926Z,7.93
2018-05-26T19:08:14.563Z,10.67
2018-05-26T19:10:51.199Z,8.50
2018-05-26T19:13:26.945Z,7.50
2018-05-26T19:16:01.464Z,7.80
2018-05-26T19:18:31.118Z,7.37
2018-05-26T19:21:02.564Z,7.40
2018-05-26T19:23:30.085Z,7.43
2018-05-26T19:25:58.716Z,7.57
2018-05-26T19:28:27.988Z,7.43
2018-05-26T19:31:00.080Z,8.07
2018-05-26T19:33:51.218Z,8.20
2018-05-26T19:36:30.936Z,8.20
2018-05-26T19:39:10.942Z,8.60
2018-05-26T19:41:40.634Z,8.60
2018-05-26T19:44:12.658Z,8.67
2018-05-26T19:46:56.962Z,9.43
2018-05-26T19:49:35.797Z,9.13
2018-05-26T19:52:07.989Z,9.07
2018-05-26T19:54:40.300Z,9.17
2018-05-26T19:57:15.718Z,10.00
2018-05-26T19:59:47.809Z,8.93
2018-05-26T20:02:29.267Z,10.10
2018-05-26T20:04:58.990Z,10.43
2018-05-26T20:07:27.690Z,10.50
2018-05-26T20:09:58.541Z,10.53
2018-05-26T20:12:33.006Z,9.93
2018-05-26T20:15:22.064Z,10.40
2018-05-26T20:17:50.765Z,10.53
2018-05-26T20:23:13.565Z,10.60
2018-05-26T20:25:42.921Z,10.93
2018-05-26T20:28:13.118Z,11.57
2018-05-26T20:30:44.079Z,10.70
2018-05-26T20:33:11.903Z,11.33
2018-05-26T20:35:40.409Z,11.40
2018-05-26T20:38:11.907Z,10.33
2018-05-26T20:40:46.032Z,11.27
2018-05-26T20:43:24.971Z,11.80
2018-05-26T20:46:05.211Z,11.40
2018-05-26T20:48:38.011Z,11.07
2018-05-26T20:51:06.704Z,11.47
2018-05-26T20:53:34.367Z,11.23
2018-05-26T20:56:01.887Z,11.07
2018-05-26T20:58:32.988Z,11.37
2018-05-26T21:01:03.873Z,11.40
2018-05-26T21:03:36.875Z,12.03
2018-05-26T21:06:08.594Z,10.17
2018-05-26T21:08:39.431Z,10.97
2018-05-26T21:11:14.834Z,10.70
2018-05-26T21:13:42.359Z,11.07
2018-05-26T21:16:17.425Z,11.00
2018-05-26T21:18:48.304Z,11.20
2018-05-26T21:21:15.910Z,11.03
2018-05-26T21:23:45.420Z,10.67
2018-05-26T21:26:13.139Z,10.27
2018-05-26T21:28:42.741Z,11.10
2018-05-26T21:31:14.264Z,10.87
2018-05-26T21:33:42.875Z,10.90
2018-05-26T21:36:14.000Z,11.10
2018-05-26T21:38:42.751Z,10.53
2018-05-26T21:41:12.339Z,10.53
2018-05-26T21:43:41.020Z,10.53
2018-05-26T21:46:09.934Z,10.47
2018-05-26T21:48:39.616Z,10.77
2018-05-26T21:51:09.134Z,10.40
2018-05-26T21:53:36.658Z,10.63
2018-05-26T21:56:09.668Z,11.27
2018-05-26T21:58:41.128Z,10.37
2018-05-26T22:01:11.633Z,10.37
2018-05-26T22:03:39.444Z,10.70
2018-05-26T22:06:09.063Z,10.70
2018-05-26T22:08:36.794Z,10.50
2018-05-26T22:11:15.272Z,10.63
2018-05-26T22:13:52.921Z,10.17
2018-05-26T22:16:20.914Z,10.53
2018-05-26T22:18:50.574Z,10.50
2018-05-26T22:21:19.264Z,10.17
2018-05-26T22:23:50.121Z,10.63
2018-05-26T22:26:17.869Z,10.37
2018-05-26T22:28:45.396Z,10.07
2018-05-26T22:31:13.282Z,10.27
2018-05-26T22:33:41.916Z,10.40
2018-05-26T22:36:14.890Z,10.17
2018-05-26T22:38:44.401Z,10.53
2018-05-26T22:41:13.067Z,10.23
2018-05-26T22:43:42.680Z,10.53
2018-05-26T22:46:10.430Z,10.37
2018-05-26T22:48:40.049Z,10.73
2018-05-26T22:51:12.121Z,10.63
2018-05-26T22:53:39.881Z,10.93
2018-05-26T22:56:10.736Z,11.50
2018-05-26T22:58:41.243Z,11.30
2018-05-26T23:01:13.932Z,10.67
2018-05-26T23:03:45.742Z,11.03
2018-05-26T23:06:14.880Z,11.13
2018-05-26T23:08:43.599Z,10.87
2018-05-26T23:11:13.606Z,10.97
2018-05-26T23:13:42.430Z,11.63
2018-05-26T23:16:13.420Z,11.27
2018-05-26T23:18:42.142Z,12.87
2018-05-26T23:21:15.472Z,12.60
2018-05-26T23:23:47.175Z,11.73
2018-05-26T23:26:16.894Z,11.40
2018-05-26T23:28:51.026Z,12.00
2018-05-26T23:31:24.303Z,11.93
2018-05-26T23:33:58.426Z,11.13
2018-05-26T23:36:25.995Z,11.03
2018-05-26T23:38:53.730Z,11.13
2018-05-26T23:41:21.258Z,11.53
2018-05-26T23:43:52.329Z,11.70
2018-05-26T23:46:24.137Z,11.50
2018-05-26T23:48:51.850Z,11.77
2018-05-26T23:51:24.555Z,11.73
2018-05-26T23:53:53.218Z,11.50
2018-05-26T23:56:21.918Z,12.30
2018-05-26T23:58:50.612Z,11.97
